Time;durP1;ratioP1;P1;durP2;ratioP2;P2;SDS_P1;SDS_P2;PMS_P1;PMS_P2;Temp;Humidity;BMP_temperature;BMP_pressure;BME280_temperature;BME280_humidity;BME280_pressure;Samples;Min_cycle;Max_cycle;Signal;HPM_P1;HPM_P2
2023/01/02 00:00:45;;;;;;;;;7.00;5.67;;;;;15.33;65.68;101127.16;2034456;28;3453380;-86
2023/01/02 00:01:57;;;;;;;;;6.75;6.00;;;;;15.33;65.93;101127.16;2042817;28;2735710;-86
2023/01/02 00:03:10;;;;;;;;;6.00;4.83;;;;;15.34;65.85;101128.00;2043783;28;2740913;-86
2023/01/02 00:04:20;;;;;;;;;6.00;6.00;;;;;15.34;66.00;101128.88;1994008;28;2746117;-86
2023/01/02 00:05:31;;;;;;;;;6.67;5.00;;;;;15.35;66.12;101132.38;2035216;28;2746087;-85
2023/01/02 00:06:42;;;;;;;;;3.67;3.00;;;;;15.36;66.05;101131.47;2040081;28;3455437;-86
2023/01/02 00:07:53;;;;;;;;;3.33;3.33;;;;;15.37;65.65;101141.09;2032633;27;2753385;-86
2023/01/02 00:09:06;;;;;;;;;4.33;3.33;;;;;15.37;65.85;101135.81;2019895;28;2739845;-86
2023/01/02 00:10:19;;;;;;;;;8.67;4.33;;;;;15.37;66.00;101143.75;2044296;28;2746129;-86
2023/01/02 00:11:32;;;;;;;;;3.00;3.00;;;;;15.37;65.85;101149.03;2020396;28;2739871;-85
2023/01/02 00:12:43;;;;;;;;;4.33;4.33;;;;;15.38;65.74;101145.47;1996377;28;2749212;-86
2023/01/02 00:13:54;;;;;;;;;4.00;4.00;;;;;15.38;65.76;101140.19;2043017;28;2743473;-86
2023/01/02 00:15:05;;;;;;;;;6.00;4.00;;;;;15.38;65.95;101143.66;1995740;28;2754416;-86
2023/01/02 00:16:15;;;;;;;;;5.67;4.67;;;;;15.39;66.08;101144.53;2019563;28;2750300;-86
2023/01/02 00:17:26;;;;;;;;;7.00;4.00;;;;;15.39;65.98;101157.78;2043843;28;2746548;-86
2023/01/02 00:18:36;;;;;;;;;8.00;5.67;;;;;15.38;65.83;101156.06;1995761;28;2746259;-86
2023/01/02 00:19:48;;;;;;;;;5.00;4.00;;;;;15.39;66.07;101152.47;2044299;28;2748209;-86
2023/01/02 00:21:05;;;;;;;;;6.50;5.17;;;;;15.39;65.87;101149.81;2022045;28;2745583;-86
2023/01/02 00:22:18;;;;;;;;;7.00;4.50;;;;;15.39;66.13;101157.78;2020989;28;2745081;-85
2023/01/02 00:23:29;;;;;;;;;6.33;5.33;;;;;15.39;66.30;101160.44;1994264;28;3450229;-86
2023/01/02 00:24:42;;;;;;;;;6.83;6.33;;;;;15.39;66.04;101152.47;2044639;28;2748171;-85
2023/01/02 00:25:53;;;;;;;;;5.00;4.67;;;;;15.39;66.16;101156.00;1995312;28;2744027;-86
2023/01/02 00:27:04;;;;;;;;;6.00;4.00;;;;;15.39;66.08;101157.78;2044330;28;2748184;-86
2023/01/02 00:28:17;;;;;;;;;5.50;5.50;;;;;15.39;66.24;101165.72;2021621;28;2747187;-86
2023/01/02 00:29:30;;;;;;;;;6.50;4.00;;;;;15.39;66.31;101163.06;2020690;28;2746130;-86
2023/01/02 00:30:41;;;;;;;;;4.67;4.00;;;;;15.39;66.30;101163.94;1988786;28;2750259;-86
2023/01/02 00:31:52;;;;;;;;;4.00;2.67;;;;;15.39;66.33;101155.13;2042869;28;2736736;-86
2023/01/02 00:33:06;;;;;;;;;2.67;1.50;;;;;15.39;66.38;101155.13;2022841;28;2741935;-86
2023/01/02 00:34:19;;;;;;;;;4.17;3.67;;;;;15.40;66.39;101140.97;2045243;28;2746098;-87
2023/01/02 00:35:30;;;;;;;;;4.00;4.00;;;;;15.39;66.20;101148.03;1995252;28;2739852;-86
2023/01/02 00:36:42;;;;;;;;;3.00;3.00;;;;;15.39;66.20;101140.09;2043695;28;2741949;-87
2023/01/02 00:37:53;;;;;;;;;4.00;4.00;;;;;15.40;66.46;101143.63;2018556;28;2754427;-86
2023/01/02 00:39:04;;;;;;;;;8.00;5.00;;;;;15.39;66.50;101140.09;2034072;28;2748262;-86
2023/01/02 00:40:16;;;;;;;;;3.75;3.00;;;;;15.40;66.37;101143.63;2043974;28;2744737;-86
2023/01/02 00:41:29;;;;;;;;;3.33;3.33;;;;;15.40;66.41;101148.91;2044193;28;2752398;-86
2023/01/02 00:42:40;;;;;;;;;2.67;2.67;;;;;15.39;66.59;101150.69;1988825;28;2746091;-86
2023/01/02 00:43:53;;;;;;;;;2.33;2.33;;;;;15.39;66.76;101147.19;2044580;28;2739861;-86
2023/01/02 00:45:08;;;;;;;;;4.50;3.67;;;;;15.39;66.53;101144.53;2021976;28;2737844;-86
2023/01/02 00:46:22;;;;;;;;;4.83;2.50;;;;;15.37;66.84;101149.03;2021304;28;2743009;-86
2023/01/02 00:47:35;;;;;;;;;5.33;3.67;;;;;15.37;66.53;101149.03;2020751;28;2739853;-86
2023/01/02 00:48:45;;;;;;;;;6.00;4.00;;;;;15.36;66.67;101148.19;1995713;28;2750276;-86
2023/01/02 00:49:56;;;;;;;;;3.00;3.00;;;;;15.36;66.79;101158.78;2033952;28;2748189;-86
2023/01/02 00:51:08;;;;;;;;;6.00;4.00;;;;;15.36;66.67;101152.66;2051557;27;2748193;-86
2023/01/02 00:52:18;;;;;;;;;6.00;5.00;;;;;15.36;66.86;101158.78;2024492;28;2744056;-86
2023/01/02 00:53:29;;;;;;;;;5.33;3.67;;;;;15.37;66.78;101154.34;2027757;28;2751377;-86
2023/01/02 00:54:40;;;;;;;;;3.00;3.00;;;;;15.37;67.12;101146.41;2029824;28;3456498;-86
2023/01/02 00:55:51;;;;;;;;;7.67;4.33;;;;;15.36;67.05;101144.69;2043563;28;2747132;-86
2023/01/02 00:57:02;;;;;;;;;5.00;5.00;;;;;15.35;66.93;101153.56;1996554;28;2746090;-86
2023/01/02 00:58:13;;;;;;;;;6.67;4.00;;;;;15.34;67.05;101150.03;2043085;28;2746111;-86
2023/01/02 00:59:23;;;;;;;;;6.33;5.33;;;;;15.35;66.92;101145.63;1996418;28;2745053;-86
2023/01/02 01:00:34;;;;;;;;;5.33;5.00;;;;;15.34;67.10;101149.19;2035530;28;2754420;-86
2023/01/02 01:01:45;;;;;;;;;6.00;4.00;;;;;15.35;66.99;101150.91;2032208;28;2744054;-86
2023/01/02 01:02:57;;;;;;;;;5.33;5.00;;;;;15.34;67.15;101150.03;2027380;28;2746183;-86
2023/01/02 01:04:08;;;;;;;;;4.33;3.67;;;;;15.34;67.31;101150.03;2018429;28;2752380;-86
2023/01/02 01:05:19;;;;;;;;;6.00;4.00;;;;;15.35;67.10;101145.63;2034434;28;2752340;-86
2023/01/02 01:06:32;;;;;;;;;3.75;3.00;;;;;15.34;67.30;101147.41;2043065;28;2738795;-86
2023/01/02 01:07:43;;;;;;;;;7.33;4.00;;;;;15.34;67.09;101146.53;2018568;28;2747213;-86
2023/01/02 01:08:54;;;;;;;;;3.67;3.67;;;;;15.33;67.12;101144.84;2043504;27;2748546;-86
2023/01/02 01:10:05;;;;;;;;;4.00;3.00;;;;;15.32;66.95;101145.75;1994868;28;2754426;-86
2023/01/02 01:11:18;;;;;;;;;10.00;6.00;;;;;15.32;67.11;101157.22;2044500;28;2745125;-86
2023/01/02 01:12:31;;;;;;;;;4.00;4.00;;;;;15.30;67.19;101154.66;2045082;28;2743016;-86
2023/01/02 01:13:45;;;;;;;;;4.50;4.00;;;;;15.30;67.20;101151.13;2021498;28;2748170;-87
2023/01/02 01:14:55;;;;;;;;;7.00;5.33;;;;;15.30;67.21;101153.78;1995079;28;2753561;-86
2023/01/02 01:16:12;;;;;;;;;4.33;3.67;;;;;15.32;67.17;101145.75;2024502;28;2749628;-86
2023/01/02 01:17:25;;;;;;;;;2.67;2.67;;;;;15.31;67.26;101150.19;2044727;28;2733583;-86
2023/01/02 01:18:36;;;;;;;;;9.00;4.00;;;;;15.30;67.29;101149.34;1994545;28;3479422;-87
2023/01/02 01:19:46;;;;;;;;;4.00;4.00;;;;;15.29;67.79;101162.63;2021112;28;2754449;-86
2023/01/02 01:20:57;;;;;;;;;3.00;3.00;;;;;15.30;67.24;101164.38;2042986;28;2754942;-86
2023/01/02 01:22:11;;;;;;;;;3.17;2.00;;;;;15.30;67.45;101157.28;2022124;28;2726319;-86
2023/01/02 01:23:24;;;;;;;;;3.50;3.50;;;;;15.30;67.51;101165.25;2037989;28;2737757;-86
2023/01/02 01:24:37;;;;;;;;;4.17;3.00;;;;;15.30;67.56;101159.94;2020433;28;2727356;-86
2023/01/02 01:25:50;;;;;;;;;3.67;3.67;;;;;15.29;67.55;101166.16;2016703;28;2736764;-86
2023/01/02 01:27:03;;;;;;;;;5.00;3.67;;;;;15.29;67.92;101152.03;2020530;28;2744015;-87
2023/01/02 01:28:17;;;;;;;;;4.83;4.67;;;;;15.28;67.75;101156.47;2022043;28;2746594;-86
2023/01/02 01:29:27;;;;;;;;;3.67;3.67;;;;;15.27;67.84;101160.06;1995368;28;2746125;-87
2023/01/02 01:30:38;;;;;;;;;5.67;4.00;;;;;15.27;67.45;101167.16;2043962;28;2741939;-87
2023/01/02 01:31:51;;;;;;;;;1.17;1.17;;;;;15.27;67.83;101162.72;2020815;28;2737808;-86
2023/01/02 01:33:05;;;;;;;;;3.50;3.50;;;;;15.25;67.82;101156.66;2021041;28;2737762;-86
2023/01/02 01:34:18;;;;;;;;;3.83;2.67;;;;;15.25;68.18;101163.72;2020746;28;2731500;-86
2023/01/02 01:35:34;;;;;;;;;4.00;2.33;;;;;15.24;67.99;101160.22;2021338;28;2750286;-87
2023/01/02 01:36:47;;;;;;;;;3.33;2.83;;;;;15.23;67.88;101161.16;2020669;28;2734643;-86
2023/01/02 01:38:00;;;;;;;;;6.17;4.67;;;;;15.23;67.94;101162.94;2013704;28;2747215;-86
2023/01/02 01:39:11;;;;;;;;;3.00;3.00;;;;;15.22;68.20;101159.44;1995267;28;2754431;-86
2023/01/02 01:40:22;;;;;;;;;4.67;3.00;;;;;15.22;68.02;101162.06;2043946;28;2744015;-86
2023/01/02 01:41:35;;;;;;;;;3.33;2.00;;;;;15.21;68.18;101165.63;2021096;28;2727322;-86
2023/01/02 01:42:48;;;;;;;;;3.50;2.17;;;;;15.20;68.20;101163.94;2043710;28;2744027;-87
2023/01/02 01:44:00;;;;;;;;;6.33;3.00;;;;;15.19;68.42;101163.06;1987985;28;2754462;-87
2023/01/02 01:45:14;;;;;;;;;2.00;1.00;;;;;15.18;68.21;101160.50;2044634;28;2732549;-87
2023/01/02 01:46:44;;;;;;;;;3.00;3.00;;;;;15.17;68.47;101167.59;2043966;28;2743999;-86
2023/01/02 01:47:59;;;;;;;;;2.33;2.33;;;;;15.16;68.19;101168.50;2015974;28;2750261;-86
2023/01/02 01:49:25;;;;;;;;;3.00;3.00;;;;;15.15;68.35;101173.88;2021981;28;2729416;-86
2023/01/02 01:50:35;;;;;;;;;6.00;3.67;;;;;15.14;68.60;101175.66;1995858;28;2744456;-86
2023/01/02 01:52:05;;;;;;;;;2.67;2.33;;;;;15.12;68.56;101177.53;2031666;28;2752353;-86
2023/01/02 01:53:21;;;;;;;;;4.67;3.00;;;;;15.12;68.82;101180.16;2044379;28;2730819;-86
2023/01/02 01:54:57;;;;;;;;;6.00;3.17;;;;;15.11;68.79;101182.91;2021072;28;2744356;-86
2023/01/02 01:56:12;;;;;;;;;3.00;3.00;;;;;15.09;68.83;101190.06;2018949;28;2745057;-86
2023/01/02 01:57:50;;;;;;;;;5.17;3.33;;;;;15.09;68.62;101190.06;2022340;28;2739848;-86
2023/01/02 01:59:01;;;;;;;;;5.00;4.00;;;;;15.09;68.77;101195.34;1995643;28;2753396;-86
2023/01/02 02:00:12;;;;;;;;;2.33;2.00;;;;;15.08;68.91;101197.13;2019421;28;2753379;-86
2023/01/02 02:01:23;;;;;;;;;3.00;3.00;;;;;15.07;68.97;101201.56;2019749;28;2739837;-86
2023/01/02 02:02:38;;;;;;;;;3.40;2.40;;;;;15.06;68.92;101197.19;2043100;28;2745046;-86
2023/01/02 02:03:51;;;;;;;;;4.50;1.83;;;;;15.05;68.78;101210.50;2044569;28;2731521;-86
2023/01/02 02:05:06;;;;;;;;;2.67;2.67;;;;;15.03;69.25;101204.41;2021170;28;2750292;-86
2023/01/02 02:06:19;;;;;;;;;6.67;3.83;;;;;15.03;69.10;101204.41;2020812;28;2749233;-86
2023/01/02 02:07:31;;;;;;;;;4.00;3.00;;;;;15.04;69.23;101216.69;1995424;28;2750366;-86
2023/01/02 02:08:56;;;;;;;;;2.00;2.00;;;;;15.02;69.14;101210.63;2044712;28;2748171;-86
2023/01/02 02:10:11;;;;;;;;;7.33;3.67;;;;;15.02;69.42;101223.84;2021328;28;2745068;-86
2023/01/02 02:11:25;;;;;;;;;3.00;1.00;;;;;15.02;69.22;101227.38;2021038;28;2739852;-86
2023/01/02 02:12:38;;;;;;;;;2.17;1.00;;;;;15.02;69.12;101219.44;2022717;28;2725254;-86
2023/01/02 02:13:58;;;;;;;;;2.33;1.50;;;;;15.02;69.63;101230.00;2045417;28;2729444;-86
2023/01/02 02:15:18;;;;;;;;;3.83;3.00;;;;;15.02;68.97;101235.31;2022409;28;2734695;-86
2023/01/02 02:16:51;;;;;;;;;2.00;2.00;;;;;15.01;69.51;101238.91;2019441;28;2739875;-86
2023/01/02 02:18:40;;;;;;;;;3.33;2.00;;;;;15.01;69.52;101236.25;2016144;28;2748165;-86
2023/01/02 02:20:11;;;;;;;;;1.67;1.67;;;;;14.99;69.55;101235.44;1987923;28;2728402;-86
2023/01/02 02:21:55;;;;;;;;;3.33;2.00;;;;;14.99;69.64;101239.91;2021219;28;2738810;-86
2023/01/02 02:23:36;;;;;;;;;4.17;3.00;;;;;14.98;69.63;101243.44;2021937;28;2731512;-86
2023/01/02 02:25:01;;;;;;;;;2.00;2.00;;;;;14.97;69.53;101239.94;2020579;28;2748185;-86
2023/01/02 02:26:33;;;;;;;;;2.00;2.00;;;;;14.96;69.73;101243.53;2019541;28;2750312;-86
2023/01/02 02:28:06;;;;;;;;;2.83;1.67;;;;;14.95;69.57;101241.81;2015723;28;2740890;-86
2023/01/02 02:29:48;;;;;;;;;1.50;1.50;;;;;14.94;69.77;101238.28;2025261;28;2725290;-86
2023/01/02 02:31:12;;;;;;;;;3.00;2.00;;;;;14.93;70.09;101233.94;2020394;28;2751337;-86
2023/01/02 02:32:47;;;;;;;;;2.83;2.67;;;;;14.93;69.92;101230.44;2021236;28;2730466;-86
2023/01/02 02:34:03;;;;;;;;;2.83;2.50;;;;;14.91;69.90;101230.50;2012483;28;2754228;-86
2023/01/02 02:35:25;;;;;;;;;4.00;2.50;;;;;14.92;69.95;101236.63;2016206;28;2734660;-87
2023/01/02 02:36:43;;;;;;;;;3.00;0.83;;;;;14.90;70.00;101239.34;2022063;28;2725621;-86
2023/01/02 02:38:03;;;;;;;;;2.67;1.00;;;;;14.90;70.17;101246.44;2021282;28;2737783;-87
2023/01/02 02:39:38;;;;;;;;;2.00;1.17;;;;;14.89;70.17;101237.63;2022768;28;2714849;-86
2023/01/02 02:41:14;;;;;;;;;1.83;1.83;;;;;14.88;70.23;101237.69;2021071;28;2732586;-86
2023/01/02 02:42:51;;;;;;;;;2.67;2.00;;;;;14.89;70.26;101228.84;2020721;28;2749215;-87
2023/01/02 02:44:19;;;;;;;;;1.83;1.33;;;;;14.88;70.24;101220.03;2022112;28;2734624;-86
2023/01/02 02:45:46;;;;;;;;;4.00;2.50;;;;;14.88;70.11;101232.41;2020683;28;2750292;-87
2023/01/02 02:47:11;;;;;;;;;2.00;2.00;;;;;14.88;70.44;101229.75;2021052;28;2740935;-86
2023/01/02 02:48:54;;;;;;;;;2.67;2.00;;;;;14.86;70.30;101232.50;2020560;28;2735700;-86
2023/01/02 02:50:27;;;;;;;;;1.33;1.00;;;;;14.87;70.39;101233.31;2021864;28;2726422;-86
2023/01/02 02:52:16;;;;;;;;;3.67;2.00;;;;;14.87;70.45;101230.66;1995550;28;2751307;-86
2023/01/02 02:53:42;;;;;;;;;1.83;1.83;;;;;14.84;70.28;101237.78;2041996;28;2730459;-87
2023/01/02 02:55:08;;;;;;;;;1.00;1.00;;;;;14.85;70.59;101228.97;2021336;28;2727337;-87
2023/01/02 02:56:26;;;;;;;;;1.67;1.33;;;;;14.84;70.57;101235.16;2039515;28;2733599;-86
2023/01/02 02:57:43;;;;;;;;;3.67;2.00;;;;;14.83;70.49;101229.94;2019995;28;2749243;-86
2023/01/02 02:58:57;;;;;;;;;2.00;1.33;;;;;14.83;70.89;101229.94;2020805;28;2729439;-87
2023/01/02 03:00:16;;;;;;;;;1.17;1.17;;;;;14.82;70.57;101238.78;2021276;28;2729451;-86
2023/01/02 03:01:29;;;;;;;;;4.00;2.00;;;;;14.81;70.91;101248.53;1995288;28;2750312;-86
2023/01/02 03:02:42;;;;;;;;;1.50;1.50;;;;;14.80;70.64;101241.50;2046323;28;2725274;-87
2023/01/02 03:03:55;;;;;;;;;2.33;1.33;;;;;14.80;70.96;101246.81;2020956;28;2735678;-87
2023/01/02 03:05:15;;;;;;;;;4.83;2.17;;;;;14.80;70.65;101238.88;2043635;28;2750241;-87
2023/01/02 03:06:47;;;;;;;;;3.33;1.00;;;;;14.80;70.86;101233.56;2014400;28;2731530;-86
2023/01/02 03:08:22;;;;;;;;;2.00;0.67;;;;;14.79;70.79;101236.28;2040861;28;2727413;-87
2023/01/02 03:10:01;;;;;;;;;2.17;2.17;;;;;14.79;71.01;101242.41;2044182;28;2744006;-87
2023/01/02 03:11:15;;;;;;;;;5.33;2.00;;;;;14.79;70.92;101242.41;2013759;28;2741939;-87
2023/01/02 03:12:28;;;;;;;;;2.00;2.00;;;;;14.79;71.10;101239.78;2019837;28;2744003;-87
2023/01/02 03:14:06;;;;;;;;;1.00;1.00;;;;;14.79;70.97;101237.13;2022144;28;2725293;-87
2023/01/02 03:15:44;;;;;;;;;2.00;2.00;;;;;14.76;71.03;101239.06;2043937;28;2744015;-87
2023/01/02 03:17:04;;;;;;;;;1.67;1.00;;;;;14.74;71.07;101247.91;2020750;28;2724205;-86
2023/01/02 03:18:46;;;;;;;;;1.17;1.00;;;;;14.73;71.15;101245.34;2021820;28;2726363;-86
2023/01/02 03:20:07;;;;;;;;;3.33;2.00;;;;;14.73;71.15;101245.34;2027152;28;2748203;-86
2023/01/02 03:21:46;;;;;;;;;2.33;2.00;;;;;14.72;71.48;101241.81;2005977;28;2737781;-86
2023/01/02 03:23:04;;;;;;;;;1.33;1.33;;;;;14.72;71.74;101243.59;2018604;28;2722125;-87
2023/01/02 03:24:20;;;;;;;;;2.00;2.00;;;;;14.73;71.34;101242.69;2020442;28;2741927;-87
2023/01/02 03:25:35;;;;;;;;;0.83;0.83;;;;;14.73;71.36;101237.41;2021839;28;2729444;-87
2023/01/02 03:27:01;;;;;;;;;2.00;2.00;;;;;14.73;71.61;101240.91;1988126;28;2754448;-86
2023/01/02 03:28:17;;;;;;;;;2.00;1.33;;;;;14.75;71.55;101243.47;2045513;28;2722122;-86
2023/01/02 03:29:48;;;;;;;;;2.83;2.00;;;;;14.74;71.49;101249.72;2012015;28;2744080;-87
2023/01/02 03:31:04;;;;;;;;;1.50;1.50;;;;;14.75;71.51;101254.06;2024951;28;2726338;-86
2023/01/02 03:32:29;;;;;;;;;2.00;2.00;;;;;14.74;71.53;101245.25;2026228;28;2748185;-87
2023/01/02 03:33:49;;;;;;;;;4.00;2.00;;;;;14.74;71.36;101252.38;2020872;28;2754455;-86
2023/01/02 03:35:07;;;;;;;;;1.33;1.00;;;;;14.74;71.56;101255.84;2020639;28;2746106;-87
2023/01/02 03:36:26;;;;;;;;;2.00;2.00;;;;;14.73;71.59;101254.16;2021237;28;2748174;-87
2023/01/02 03:37:46;;;;;;;;;1.50;1.00;;;;;14.72;71.35;101248.91;2020788;28;2728381;-87
2023/01/02 03:39:14;;;;;;;;;3.00;2.00;;;;;14.71;71.66;101252.50;2045855;28;2728374;-87
2023/01/02 03:40:34;;;;;;;;;1.00;0.17;;;;;14.71;71.02;101257.78;2023565;28;2727368;-87
2023/01/02 03:41:59;;;;;;;;;1.00;1.00;;;;;14.68;71.33;101260.53;2046349;28;2725271;-87
2023/01/02 03:43:22;;;;;;;;;0.33;0.33;;;;;14.65;71.31;101266.81;2041228;28;2724229;-87
2023/01/02 03:44:52;;;;;;;;;0.83;0.83;;;;;14.65;71.09;101265.97;2039801;28;2729431;-87
2023/01/02 03:46:20;;;;;;;;;1.67;0.33;;;;;14.61;71.22;101271.41;2046612;28;2725325;-87
2023/01/02 03:47:47;;;;;;;;;1.00;0.50;;;;;14.59;70.94;101267.94;2040050;28;2733603;-87
2023/01/02 03:49:22;;;;;;;;;0.00;0.00;;;;;14.58;71.40;101284.75;2022697;28;2728382;-87
2023/01/02 03:50:42;;;;;;;;;1.17;0.00;;;;;14.56;71.15;101277.78;2046733;28;2727345;-87
2023/01/02 03:51:55;;;;;;;;;0.50;0.00;;;;;14.54;71.27;101277.88;2046465;28;2729436;-86
2023/01/02 03:53:08;;;;;;;;;1.00;0.50;;;;;14.55;71.18;101284.00;2022682;28;2733614;-87
2023/01/02 03:54:22;;;;;;;;;1.00;0.00;;;;;14.52;70.89;101288.50;2022478;28;2723221;-87
2023/01/02 03:55:40;;;;;;;;;1.00;0.00;;;;;14.52;70.85;101284.97;2046421;28;2728403;-87
2023/01/02 03:57:04;;;;;;;;;0.00;0.00;;;;;14.51;71.30;101281.50;2023318;28;2731524;-87
2023/01/02 03:58:30;;;;;;;;;0.00;0.00;;;;;14.52;70.99;101295.56;2046794;28;2733607;-87
2023/01/02 04:00:13;;;;;;;;;1.00;0.00;;;;;14.50;70.83;101287.69;2046948;28;2729443;-87
2023/01/02 04:01:51;;;;;;;;;0.00;0.00;;;;;14.49;71.00;101285.13;2038027;28;2727330;-87
2023/01/02 04:03:16;;;;;;;;;1.00;0.00;;;;;14.49;71.13;101288.59;2016661;28;2725289;-87
2023/01/02 04:04:42;;;;;;;;;0.00;0.00;;;;;14.48;71.01;101291.34;2046050;28;2725245;-86
2023/01/02 04:06:06;;;;;;;;;0.00;0.00;;;;;14.48;71.07;101291.34;2046731;28;2719009;-87
2023/01/02 04:07:31;;;;;;;;;0.67;0.00;;;;;14.47;70.96;101292.28;2046507;28;2733591;-86
2023/01/02 04:08:53;;;;;;;;;0.00;0.00;;;;;14.48;71.14;101296.63;2046031;28;2725274;-86
2023/01/02 04:10:10;;;;;;;;;0.00;0.00;;;;;14.47;71.13;101289.63;2049046;28;2691997;-86
2023/01/02 04:11:27;;;;;;;;;0.00;0.00;;;;;14.48;71.26;101289.56;2046455;28;2727368;-87
2023/01/02 04:12:46;;;;;;;;;0.00;0.00;;;;;14.47;71.15;101287.81;2047024;28;2725659;-86
2023/01/02 04:14:09;;;;;;;;;0.00;0.00;;;;;14.46;71.10;101286.13;2022069;28;2733603;-86
2023/01/02 04:15:25;;;;;;;;;1.33;0.00;;;;;14.48;71.21;101293.97;2049056;28;2722145;-86
2023/01/02 04:16:41;;;;;;;;;0.00;0.00;;;;;14.46;71.21;101290.53;2021509;28;2733583;-86
2023/01/02 04:18:32;;;;;;;;;0.67;0.00;;;;;14.46;71.21;101285.25;2046424;28;2733619;-86
2023/01/02 04:20:26;;;;;;;;;0.00;0.00;;;;;14.44;71.42;101295.03;1998727;28;2725274;-87
2023/01/02 04:21:41;;;;;;;;;0.00;0.00;;;;;14.45;71.75;101289.66;2021335;28;2733639;-86
2023/01/02 04:22:59;;;;;;;;;0.00;0.00;;;;;14.45;71.77;101299.38;2023542;28;2731524;-86
2023/01/02 04:24:23;;;;;;;;;2.67;0.00;;;;;14.42;71.37;101294.25;2047140;28;2722137;-87
2023/01/02 04:26:10;;;;;;;;;0.00;0.00;;;;;14.41;71.79;101298.66;2046417;28;2731881;-86
2023/01/02 04:27:28;;;;;;;;;0.00;0.00;;;;;14.40;71.54;101297.78;2043818;28;2725305;-86
2023/01/02 04:28:42;;;;;;;;;0.17;0.17;;;;;14.39;71.70;101301.38;2023536;28;2727345;-86
2023/01/02 04:29:55;;;;;;;;;3.17;0.33;;;;;14.40;71.86;101299.56;2046506;28;2735726;-87
2023/01/02 04:31:27;;;;;;;;;1.33;1.00;;;;;14.39;71.61;101301.38;2022792;28;2730471;-86
2023/01/02 04:32:41;;;;;;;;;0.00;0.00;;;;;14.39;71.64;101300.50;2023647;28;2725246;-86
2023/01/02 04:33:59;;;;;;;;;1.00;1.00;;;;;14.39;71.89;101300.50;2046818;28;2726335;-86
2023/01/02 04:35:16;;;;;;;;;1.00;1.00;;;;;14.38;71.86;101304.94;2045440;28;2733606;-86
2023/01/02 04:36:29;;;;;;;;;0.50;0.00;;;;;14.38;71.69;101301.41;2022629;28;2725258;-86
2023/01/02 04:37:43;;;;;;;;;1.50;0.83;;;;;14.39;72.00;101305.81;2046124;28;2728398;-87
2023/01/02 04:38:57;;;;;;;;;0.33;0.00;;;;;14.37;71.66;101305.84;2045700;28;2725251;-86
2023/01/02 04:40:24;;;;;;;;;2.00;0.00;;;;;14.37;71.62;101308.47;2045921;28;2729432;-86
2023/01/02 04:41:38;;;;;;;;;1.17;0.00;;;;;14.36;71.77;101311.19;2046418;28;2725745;-87
2023/01/02 04:42:51;;;;;;;;;0.00;0.00;;;;;14.36;71.68;101319.13;2046789;28;2724240;-86
2023/01/02 04:44:05;;;;;;;;;1.00;1.00;;;;;14.35;71.79;101315.63;2046301;28;2731571;-87
2023/01/02 04:45:18;;;;;;;;;1.00;1.00;;;;;14.36;71.83;101324.44;2046562;28;2729463;-86
2023/01/02 04:46:31;;;;;;;;;0.83;0.83;;;;;14.35;71.67;101326.19;2045496;28;2724213;-86
2023/01/02 04:47:47;;;;;;;;;0.83;0.50;;;;;14.35;71.88;101330.63;2046070;28;2725305;-86
2023/01/02 04:49:00;;;;;;;;;0.00;0.00;;;;;14.34;71.83;101335.06;2023289;28;2728384;-86
2023/01/02 04:50:14;;;;;;;;;0.00;0.00;;;;;14.34;71.75;101335.06;2046381;28;2731544;-87
2023/01/02 04:51:27;;;;;;;;;2.00;0.50;;;;;14.33;71.93;101332.47;2044828;28;2739849;-86
2023/01/02 04:52:40;;;;;;;;;1.00;0.00;;;;;14.33;71.86;101343.91;2046512;28;2725262;-86
2023/01/02 04:53:54;;;;;;;;;0.00;0.00;;;;;14.33;71.80;101333.34;2046158;28;2729460;-87
2023/01/02 04:55:08;;;;;;;;;1.83;0.00;;;;;14.32;71.79;101347.47;2045142;28;2726296;-87
2023/01/02 04:56:21;;;;;;;;;0.83;0.83;;;;;14.32;71.65;101344.81;2045455;28;2731500;-86
2023/01/02 04:57:36;;;;;;;;;0.00;0.00;;;;;14.34;71.70;101352.72;2046464;28;2725294;-86
2023/01/02 04:58:50;;;;;;;;;0.00;0.00;;;;;14.32;71.50;101347.47;2022659;28;2724201;-86
2023/01/02 05:00:05;;;;;;;;;0.00;0.00;;;;;14.31;71.77;101356.34;2048028;28;2701309;-86
2023/01/02 05:01:20;;;;;;;;;0.00;0.00;;;;;14.32;71.64;101365.13;2045304;28;2733591;-86
2023/01/02 05:02:35;;;;;;;;;0.00;0.00;;;;;14.31;71.66;101361.63;2022406;28;2729460;-86
2023/01/02 05:03:51;;;;;;;;;0.00;0.00;;;;;14.31;71.62;101364.28;2039229;28;2724244;-86
2023/01/02 05:05:06;;;;;;;;;0.00;0.00;;;;;14.30;71.74;101370.47;2045972;28;2725652;-86
2023/01/02 05:06:19;;;;;;;;;0.00;0.00;;;;;14.29;71.72;101367.00;2022798;28;2725282;-86
2023/01/02 05:07:34;;;;;;;;;0.00;0.00;;;;;14.29;71.78;101359.06;2046474;28;2725286;-86
2023/01/02 05:08:47;;;;;;;;;0.00;0.00;;;;;14.30;71.72;101365.19;2046275;28;2725255;-86
2023/01/02 05:10:00;;;;;;;;;0.00;0.00;;;;;14.28;71.30;101364.38;2045681;28;2729459;-86
2023/01/02 05:11:20;;;;;;;;;0.00;0.00;;;;;14.28;71.57;101367.03;2022328;28;2729444;-87
2023/01/02 05:12:34;;;;;;;;;0.00;0.00;;;;;14.27;71.46;101370.59;2046888;28;2720061;-86
2023/01/02 05:13:47;;;;;;;;;0.00;0.00;;;;;14.26;71.37;101375.03;2046460;28;2725277;-86
2023/01/02 05:15:03;;;;;;;;;0.00;0.00;;;;;14.26;71.73;101379.44;2046896;28;2725254;-86
2023/01/02 05:16:16;;;;;;;;;0.50;0.00;;;;;14.24;71.58;101379.53;2046412;28;2725294;-86
2023/01/02 05:17:36;;;;;;;;;0.00;0.00;;;;;14.24;71.90;101382.16;2045587;28;2726311;-86
2023/01/02 05:18:51;;;;;;;;;0.00;0.00;;;;;14.23;71.85;101383.06;2046185;28;2721084;-86
2023/01/02 05:20:07;;;;;;;;;0.33;0.00;;;;;14.23;71.30;101390.13;2046211;28;2724229;-86
2023/01/02 05:24:25;;;;;;;;;0.00;0.00;;;;;14.20;71.44;101391.13;2043924;28;2719032;-86
2023/01/02 05:25:38;;;;;;;;;0.17;0.00;;;;;14.20;71.47;101393.75;2046385;28;2723206;-86
2023/01/02 05:26:53;;;;;;;;;0.00;0.00;;;;;14.19;71.51;101399.97;2044989;28;2716943;-86
2023/01/02 05:28:06;;;;;;;;;0.00;0.00;;;;;14.18;71.72;101401.75;2046662;28;2727346;-86
2023/01/02 05:29:19;;;;;;;;;0.00;0.00;;;;;14.17;71.65;101400.00;2023010;28;2716928;-86
2023/01/02 05:30:33;;;;;;;;;0.00;0.00;;;;;14.18;71.57;101401.75;2046177;28;2722169;-86
2023/01/02 05:31:46;;;;;;;;;0.00;0.00;;;;;14.17;71.55;101407.94;2045211;28;2724253;-86
2023/01/02 05:32:59;;;;;;;;;2.17;0.00;;;;;14.18;71.45;101407.03;2045612;28;2727372;-86
2023/01/02 05:34:13;;;;;;;;;0.83;0.00;;;;;14.17;71.74;101407.94;2021304;28;2731566;-86
2023/01/02 05:35:27;;;;;;;;;0.00;0.00;;;;;14.16;71.54;101411.53;2046477;28;2729416;-86
2023/01/02 05:36:40;;;;;;;;;0.00;0.00;;;;;14.16;71.03;101415.94;2023008;28;2721088;-86
2023/01/02 05:37:53;;;;;;;;;0.83;0.00;;;;;14.16;71.65;101415.94;2045585;28;2733607;-86
2023/01/02 05:39:13;;;;;;;;;1.00;0.00;;;;;14.15;71.51;101417.72;2021768;28;2722148;-86
2023/01/02 05:40:26;;;;;;;;;0.00;0.00;;;;;14.13;71.52;101416.94;2040290;28;2721080;-86
2023/01/02 05:41:41;;;;;;;;;1.83;0.00;;;;;14.13;71.41;101424.84;2045457;28;2731507;-86
2023/01/02 05:42:54;;;;;;;;;0.00;0.00;;;;;14.13;71.63;101427.50;2046193;28;2724250;-86
2023/01/02 05:44:08;;;;;;;;;0.00;0.00;;;;;14.13;71.50;101424.84;2046670;28;2723179;-86
2023/01/02 05:45:22;;;;;;;;;0.00;0.00;;;;;14.13;71.45;101431.91;2047904;28;2704406;-86
2023/01/02 05:46:36;;;;;;;;;0.00;0.00;;;;;14.11;71.25;101434.63;2046466;28;2717991;-86
2023/01/02 05:47:50;;;;;;;;;0.00;0.00;;;;;14.12;71.20;101440.78;2045756;28;2721100;-86
2023/01/02 05:49:04;;;;;;;;;0.00;0.00;;;;;14.10;71.40;101438.19;2045451;28;2727430;-86
2023/01/02 05:50:17;;;;;;;;;0.00;0.00;;;;;14.10;71.19;101440.81;2046153;28;2722640;-86
2023/01/02 05:51:31;;;;;;;;;0.00;0.00;;;;;14.09;71.48;101436.47;2045325;28;2729424;-86
2023/01/02 05:52:44;;;;;;;;;0.00;0.00;;;;;14.06;71.14;101441.84;2046438;28;2721108;-86
2023/01/02 05:53:57;;;;;;;;;0.00;0.00;;;;;14.05;71.49;101445.44;2045985;28;2722137;-86
2023/01/02 05:55:10;;;;;;;;;0.00;0.00;;;;;14.04;71.06;101439.28;2045876;28;2722136;-86
2023/01/02 05:56:26;;;;;;;;;0.00;0.00;;;;;14.04;71.52;101446.34;2046697;28;2710826;-86
2023/01/02 05:57:39;;;;;;;;;0.00;0.00;;;;;14.03;71.35;101447.25;2053430;27;2721079;-86